Time;durP1;ratioP1;P1;durP2;ratioP2;P2;SDS_P1;SDS_P2;PMS_P1;PMS_P2;Temp;Humidity;BMP_temperature;BMP_pressure;BME280_temperature;BME280_humidity;BME280_pressure;Samples;Min_cycle;Max_cycle;Signal;HPM_P1;HPM_P2
2022/06/17 00:00:55;;;;;;;12.95;9.98;;;13.40;99.90;;;;;;5064562;28;20043;-82
2022/06/17 00:03:22;;;;;;;14.48;10.15;;;13.40;99.90;;;;;;5071850;28;20044;-81
2022/06/17 00:05:50;;;;;;;14.65;12.07;;;13.40;99.90;;;;;;5064673;28;20397;-83
2022/06/17 00:08:19;;;;;;;15.43;9.68;;;13.40;99.90;;;;;;5071706;28;20078;-82
2022/06/17 00:10:45;;;;;;;11.00;9.90;;;13.40;99.90;;;;;;5072587;28;20048;-83
2022/06/17 00:13:17;;;;;;;10.90;9.90;;;13.30;99.90;;;;;;5073604;28;20492;-82
2022/06/17 00:15:45;;;;;;;16.05;9.93;;;13.30;99.90;;;;;;5074297;28;20150;-82
2022/06/17 00:18:12;;;;;;;12.32;10.90;;;13.30;99.90;;;;;;5071690;28;20044;-82
2022/06/17 00:20:38;;;;;;;14.43;10.38;;;13.30;99.90;;;;;;5071826;28;20135;-82
2022/06/17 00:23:10;;;;;;;12.80;11.43;;;13.30;99.90;;;;;;5073950;28;20056;-82
2022/06/17 00:25:37;;;;;;;18.33;12.38;;;13.30;99.90;;;;;;5067101;28;20084;-82
2022/06/17 00:28:08;;;;;;;17.75;12.20;;;13.30;99.90;;;;;;5053712;28;20045;-82
2022/06/17 00:30:34;;;;;;;14.07;10.90;;;13.30;99.90;;;;;;5054068;28;20037;-82
2022/06/17 00:33:02;;;;;;;17.52;11.00;;;13.30;99.90;;;;;;5052844;28;20489;-82
2022/06/17 00:35:35;;;;;;;13.82;12.30;;;13.30;99.90;;;;;;5054181;28;20051;-82
2022/06/17 00:38:03;;;;;;;13.18;11.88;;;13.30;99.90;;;;;;5053607;28;20128;-82
2022/06/17 00:40:32;;;;;;;15.05;11.50;;;13.30;99.90;;;;;;5052901;28;20048;-82
2022/06/17 00:43:02;;;;;;;17.80;10.93;;;13.30;99.90;;;;;;5067188;28;20406;-82
2022/06/17 00:45:41;;;;;;;13.80;11.73;;;13.30;99.90;;;;;;5072793;28;20118;-82
2022/06/17 00:48:23;;;;;;;13.18;11.38;;;13.30;99.90;;;;;;5064820;28;20045;-82
2022/06/17 00:50:58;;;;;;;15.27;11.32;;;13.30;99.90;;;;;;5052210;28;20484;-82
2022/06/17 00:53:26;;;;;;;12.50;11.25;;;13.30;99.90;;;;;;5058978;28;20136;-82
2022/06/17 00:55:56;;;;;;;16.52;11.05;;;13.30;99.90;;;;;;5071988;28;20044;-82
2022/06/17 00:58:25;;;;;;;15.77;11.07;;;13.30;99.90;;;;;;5046939;28;20048;-82
2022/06/17 01:01:02;;;;;;;14.60;11.50;;;13.30;99.90;;;;;;5052563;28;20056;-82
2022/06/17 01:03:33;;;;;;;12.35;11.10;;;13.30;99.90;;;;;;5053685;28;20412;-82
2022/06/17 01:06:05;;;;;;;11.40;10.13;;;13.30;99.90;;;;;;5053196;28;20079;-82
2022/06/17 01:11:29;;;;;;;11.70;10.10;;;13.30;99.90;;;;;;5053796;28;20519;-82
2022/06/17 01:13:55;;;;;;;12.82;10.05;;;13.30;99.90;;;;;;5071496;28;20095;-83
2022/06/17 01:16:32;;;;;;;11.48;10.32;;;13.30;99.90;;;;;;5071290;28;20053;-82
2022/06/17 01:19:03;;;;;;;12.35;10.07;;;13.30;99.90;;;;;;5053798;28;20045;-82
2022/06/17 01:21:53;;;;;;;12.55;10.52;;;13.30;99.90;;;;;;5051943;28;20083;-82
2022/06/17 01:24:20;;;;;;;12.85;10.43;;;13.30;99.90;;;;;;5045681;28;20496;-82
2022/06/17 01:26:46;;;;;;;12.50;10.65;;;13.30;99.90;;;;;;5056033;28;20053;-81
2022/06/17 01:29:16;;;;;;;14.77;11.10;;;13.30;99.90;;;;;;5056176;28;20041;-82
2022/06/17 01:31:49;;;;;;;12.32;11.05;;;13.30;99.90;;;;;;5064468;28;20495;-82
2022/06/17 01:34:15;;;;;;;12.13;10.85;;;13.30;99.90;;;;;;5068391;28;20037;-82
2022/06/17 01:36:43;;;;;;;20.25;11.00;;;13.30;99.90;;;;;;5056024;28;20049;-82
2022/06/17 01:39:11;;;;;;;12.82;10.10;;;13.30;99.90;;;;;;5056218;28;20041;-82
2022/06/17 01:41:37;;;;;;;12.38;10.10;;;13.20;99.90;;;;;;5056449;28;20052;-82
2022/06/17 01:44:19;;;;;;;11.93;10.18;;;13.20;99.90;;;;;;5056761;28;20076;-82
2022/06/17 01:46:48;;;;;;;11.50;10.20;;;13.20;99.90;;;;;;5056663;28;20051;-83
2022/06/17 01:49:26;;;;;;;11.07;9.98;;;13.20;99.90;;;;;;5060015;28;20072;-82
2022/06/17 01:52:07;;;;;;;13.05;9.65;;;13.20;99.90;;;;;;5076300;28;20576;-82
2022/06/17 01:54:39;;;;;;;12.82;9.68;;;13.20;99.90;;;;;;5066659;28;20045;-82
2022/06/17 01:57:09;;;;;;;12.38;10.18;;;13.20;99.90;;;;;;5055656;28;20048;-82
2022/06/17 01:59:46;;;;;;;15.93;10.45;;;13.20;99.90;;;;;;5056864;28;20049;-82
2022/06/17 02:02:13;;;;;;;12.60;10.15;;;13.20;99.90;;;;;;5056427;28;20040;-82
2022/06/17 02:04:44;;;;;;;11.88;10.63;;;13.20;99.90;;;;;;5054542;28;20493;-82
2022/06/17 02:07:17;;;;;;;10.38;9.05;;;13.10;99.90;;;;;;5054979;28;20102;-82
2022/06/17 02:09:44;;;;;;;12.25;9.85;;;13.10;99.90;;;;;;5062262;28;20087;-82
2022/06/17 02:12:11;;;;;;;12.68;9.48;;;13.10;99.90;;;;;;5075522;28;20140;-82
2022/06/17 02:14:37;;;;;;;11.07;9.88;;;13.10;99.90;;;;;;5077611;28;20443;-82
2022/06/17 02:17:04;;;;;;;13.57;9.57;;;13.10;99.90;;;;;;5055306;28;20061;-82
2022/06/17 02:19:34;;;;;;;13.48;10.07;;;13.00;99.90;;;;;;5055495;28;20397;-82
2022/06/17 02:22:24;;;;;;;13.25;10.07;;;13.00;99.90;;;;;;5056326;28;20045;-82
2022/06/17 02:24:53;;;;;;;16.75;10.15;;;13.00;99.90;;;;;;5055405;28;20401;-82
2022/06/17 02:27:20;;;;;;;13.25;9.60;;;13.00;99.90;;;;;;5054716;28;20049;-82
2022/06/17 02:29:48;;;;;;;12.68;9.50;;;13.00;99.90;;;;;;5055391;28;20457;-82
2022/06/17 02:32:14;;;;;;;12.95;9.80;;;13.00;99.90;;;;;;5068318;28;20135;-82
2022/06/17 02:35:13;;;;;;;12.40;9.93;;;13.00;99.90;;;;;;5054736;28;20044;-82
2022/06/17 02:37:39;;;;;;;14.93;10.48;;;12.90;99.90;;;;;;5055522;28;20048;-82
2022/06/17 02:40:11;;;;;;;11.82;10.63;;;12.90;99.90;;;;;;5053417;28;20090;-82
2022/06/17 02:42:38;;;;;;;13.15;10.35;;;12.90;99.90;;;;;;5059527;28;20044;-81
2022/06/17 02:45:10;;;;;;;14.98;10.10;;;12.90;99.90;;;;;;5073436;28;20396;-82
2022/06/17 02:47:38;;;;;;;10.98;9.32;;;12.80;99.90;;;;;;5069189;28;20116;-82
2022/06/17 02:50:05;;;;;;;11.27;9.93;;;12.80;99.90;;;;;;5055205;28;20074;-82
2022/06/17 02:52:36;;;;;;;10.05;9.05;;;12.80;99.90;;;;;;5052966;28;20048;-83
2022/06/17 02:55:08;;;;;;;12.07;10.05;;;12.90;99.90;;;;;;5037428;28;20053;-82
2022/06/17 02:57:33;;;;;;;13.98;10.85;;;12.90;99.90;;;;;;5071390;28;20118;-82
2022/06/17 03:00:03;;;;;;;11.90;10.68;;;12.90;99.90;;;;;;5053455;28;20076;-82
2022/06/17 03:02:40;;;;;;;11.40;10.30;;;12.90;99.90;;;;;;5054170;28;20045;-82
2022/06/17 03:05:20;;;;;;;12.60;10.38;;;12.90;99.90;;;;;;5055233;28;20052;-82
2022/06/17 03:07:46;;;;;;;16.40;10.68;;;12.90;99.90;;;;;;5052988;28;20051;-82
2022/06/17 03:10:23;;;;;;;11.73;10.35;;;13.00;99.90;;;;;;5055287;28;20124;-82
2022/06/17 03:12:56;;;;;;;14.15;10.48;;;13.00;99.90;;;;;;5053555;28;20057;-82
2022/06/17 03:15:23;;;;;;;11.85;10.68;;;13.00;99.90;;;;;;5053553;28;20105;-82
2022/06/17 03:17:49;;;;;;;18.42;10.82;;;13.00;99.90;;;;;;5054954;28;20128;-82
2022/06/17 03:20:29;;;;;;;11.20;9.77;;;13.10;99.90;;;;;;5052719;28;20191;-82
2022/06/17 03:23:06;;;;;;;14.98;10.20;;;13.00;99.90;;;;;;5053676;28;20045;-82
2022/06/17 03:25:40;;;;;;;13.35;9.25;;;13.10;99.90;;;;;;5055396;28;20445;-82
2022/06/17 03:28:13;;;;;;;12.93;9.15;;;13.10;99.90;;;;;;5071126;28;20543;-82
2022/06/17 03:30:46;;;;;;;13.32;9.93;;;13.10;99.90;;;;;;5066403;28;20496;-82
2022/06/17 03:33:20;;;;;;;12.50;9.60;;;13.10;99.90;;;;;;5054612;28;20546;-82
2022/06/17 03:35:49;;;;;;;14.57;10.23;;;13.10;99.90;;;;;;5053753;28;20033;-82
2022/06/17 03:38:34;;;;;;;12.82;10.25;;;13.10;99.90;;;;;;5054585;28;20044;-82
2022/06/17 03:41:17;;;;;;;10.73;9.63;;;13.20;99.90;;;;;;5044083;28;20426;-82
2022/06/17 03:43:49;;;;;;;15.75;10.25;;;13.20;99.90;;;;;;5073179;28;20040;-82
2022/06/17 03:46:16;;;;;;;13.85;10.88;;;13.20;99.90;;;;;;5073007;28;20048;-82
2022/06/17 03:48:49;;;;;;;12.60;10.35;;;13.20;99.90;;;;;;5072868;28;20080;-82
2022/06/17 03:51:23;;;;;;;12.30;9.73;;;13.30;99.90;;;;;;5064358;28;20051;-82
2022/06/17 03:53:51;;;;;;;12.85;10.25;;;13.40;99.90;;;;;;5052909;28;20088;-82
2022/06/17 03:56:26;;;;;;;14.55;9.63;;;13.50;99.90;;;;;;5053528;28;20064;-82
2022/06/17 03:58:54;;;;;;;11.20;9.88;;;13.50;99.90;;;;;;5069874;28;20045;-82
2022/06/17 04:01:42;;;;;;;14.23;10.23;;;13.60;99.90;;;;;;5080178;28;20488;-82
2022/06/17 04:04:20;;;;;;;15.70;9.60;;;13.70;99.90;;;;;;5053052;28;20053;-82
2022/06/17 04:06:48;;;;;;;12.48;9.65;;;13.70;99.90;;;;;;5055142;28;20047;-82
2022/06/17 04:09:20;;;;;;;12.52;9.30;;;13.80;99.90;;;;;;5052383;28;20060;-82
2022/06/17 04:11:48;;;;;;;11.63;9.13;;;13.90;99.90;;;;;;5053990;28;20049;-82
2022/06/17 04:14:43;;;;;;;13.02;9.45;;;14.00;99.90;;;;;;5052503;28;20048;-82
2022/06/17 04:17:26;;;;;;;13.52;8.48;;;14.10;99.90;;;;;;5050425;28;20048;-82
2022/06/17 04:20:09;;;;;;;13.60;9.23;;;14.10;99.90;;;;;;5054255;28;20138;-82
2022/06/17 04:22:36;;;;;;;12.05;7.68;;;14.10;99.90;;;;;;5070161;28;20115;-82
2022/06/17 04:25:06;;;;;;;10.93;8.48;;;14.20;99.90;;;;;;5060000;28;20044;-82
2022/06/17 04:30:21;;;;;;;9.23;7.97;;;14.30;99.90;;;;;;5082005;28;20171;-83
2022/06/17 04:32:51;;;;;;;10.77;7.75;;;14.40;99.90;;;;;;5051420;28;20102;-83
2022/06/17 04:35:17;;;;;;;11.32;7.30;;;14.40;99.90;;;;;;5053012;28;20511;-82
2022/06/17 04:37:46;;;;;;;11.10;7.85;;;14.50;99.90;;;;;;5052729;28;20056;-82
2022/06/17 04:40:30;;;;;;;8.85;7.07;;;14.50;99.90;;;;;;5058168;28;20098;-82
2022/06/17 04:42:58;;;;;;;14.10;8.75;;;14.60;99.90;;;;;;5058392;28;20139;-82
2022/06/17 04:45:27;;;;;;;8.15;6.88;;;14.60;99.90;;;;;;5051319;28;20127;-82
2022/06/17 04:47:53;;;;;;;10.80;7.00;;;14.60;99.90;;;;;;5052371;28;20045;-82
2022/06/17 04:50:23;;;;;;;12.93;7.13;;;14.60;99.90;;;;;;5060571;28;20051;-82
2022/06/17 04:52:51;;;;;;;9.82;6.55;;;14.70;99.90;;;;;;5071418;28;20036;-82
2022/06/17 04:55:20;;;;;;;10.80;6.90;;;14.70;99.90;;;;;;5067622;28;20067;-82
2022/06/17 04:57:47;;;;;;;9.13;6.55;;;14.70;99.90;;;;;;5052254;28;20115;-83
2022/06/17 05:00:25;;;;;;;8.38;6.80;;;14.80;99.90;;;;;;5058894;28;20095;-82
2022/06/17 05:02:52;;;;;;;11.00;7.25;;;14.80;99.90;;;;;;5077456;28;20477;-83
2022/06/17 05:05:38;;;;;;;9.82;6.20;;;14.80;99.90;;;;;;5076046;28;20079;-83
2022/06/17 05:08:11;;;;;;;8.70;7.28;;;14.80;99.90;;;;;;5078387;28;20036;-83
2022/06/17 05:10:40;;;;;;;7.85;6.65;;;14.90;99.90;;;;;;5077658;28;20075;-83
2022/06/17 05:13:15;;;;;;;10.75;6.53;;;14.90;99.90;;;;;;5073688;28;20056;-83
2022/06/17 05:15:41;;;;;;;9.48;5.95;;;14.90;99.90;;;;;;5055988;28;20546;-83
2022/06/17 05:18:07;;;;;;;9.85;6.32;;;15.00;99.90;;;;;;5064539;28;20048;-82
2022/06/17 05:20:33;;;;;;;6.82;5.47;;;15.00;99.90;;;;;;5074990;28;20056;-83
2022/06/17 05:23:05;;;;;;;12.75;7.45;;;15.00;99.90;;;;;;5077334;28;20102;-83
2022/06/17 05:25:39;;;;;;;11.15;6.72;;;15.10;99.90;;;;;;5076776;28;20041;-83
2022/06/17 05:28:07;;;;;;;13.02;6.90;;;15.10;99.90;;;;;;5072511;28;20040;-82
2022/06/17 05:30:39;;;;;;;11.60;7.03;;;15.10;99.90;;;;;;5076762;28;20043;-82
2022/06/17 05:33:05;;;;;;;15.30;7.43;;;15.20;99.90;;;;;;5076612;28;20059;-82
2022/06/17 05:35:31;;;;;;;12.23;6.30;;;15.20;99.90;;;;;;5073269;28;20053;-83
2022/06/17 05:37:57;;;;;;;11.10;6.30;;;15.20;99.90;;;;;;5060673;28;20075;-82
2022/06/17 05:40:24;;;;;;;9.25;7.15;;;15.20;99.90;;;;;;5057882;28;21663;-82
2022/06/17 05:42:50;;;;;;;14.00;6.95;;;15.30;99.90;;;;;;5067495;28;20440;-82
2022/06/17 05:45:24;;;;;;;11.23;6.80;;;15.30;99.90;;;;;;5074055;28;20091;-82
2022/06/17 05:47:50;;;;;;;8.30;5.45;;;15.40;99.90;;;;;;5055952;28;20044;-82
2022/06/17 05:50:17;;;;;;;15.55;7.43;;;15.40;99.90;;;;;;5056571;28;20045;-82
2022/06/17 05:52:47;;;;;;;9.05;6.45;;;15.40;99.90;;;;;;5076488;28;20045;-82
2022/06/17 05:55:13;;;;;;;10.40;6.55;;;15.50;99.90;;;;;;5075632;28;20044;-82
2022/06/17 05:57:39;;;;;;;9.50;6.68;;;15.50;99.90;;;;;;5057275;28;20546;-81
2022/06/17 06:00:05;;;;;;;9.70;5.93;;;15.60;99.90;;;;;;5052284;28;20044;-83
2022/06/17 06:02:31;;;;;;;7.60;6.50;;;15.60;99.90;;;;;;5073753;28;20045;-84
2022/06/17 06:04:56;;;;;;;11.73;6.40;;;15.70;99.90;;;;;;5065882;28;20044;-83
2022/06/17 06:07:25;;;;;;;8.18;6.18;;;15.70;99.90;;;;;;5058316;28;20466;-85
2022/06/17 06:09:51;;;;;;;7.57;6.03;;;15.80;99.90;;;;;;5075651;28;20399;-85
2022/06/17 06:12:18;;;;;;;8.45;5.95;;;15.90;99.90;;;;;;5075317;28;20049;-84
2022/06/17 06:14:44;;;;;;;9.13;6.00;;;15.90;99.90;;;;;;5056699;28;20053;-84
2022/06/17 06:17:15;;;;;;;8.20;6.38;;;16.00;99.90;;;;;;5054247;28;20037;-81
2022/06/17 06:19:42;;;;;;;8.88;6.15;;;16.00;99.90;;;;;;5071051;28;20047;-83
2022/06/17 06:22:08;;;;;;;8.48;6.22;;;16.10;99.90;;;;;;5074425;28;20041;-83
2022/06/17 06:24:34;;;;;;;8.00;6.28;;;16.20;99.90;;;;;;5065549;28;20056;-83
2022/06/17 06:27:00;;;;;;;5.80;5.20;;;16.20;99.90;;;;;;5073447;28;20604;-83
2022/06/17 06:29:26;;;;;;;8.55;6.03;;;16.40;99.90;;;;;;5062996;28;20044;-83
2022/06/17 06:31:51;;;;;;;14.68;6.32;;;16.40;99.90;;;;;;5069856;28;20053;-83
2022/06/17 06:34:20;;;;;;;7.47;5.88;;;16.50;99.90;;;;;;5075731;28;20044;-84
2022/06/17 06:36:45;;;;;;;10.00;5.97;;;16.60;99.90;;;;;;5074120;28;20153;-83
2022/06/17 06:39:11;;;;;;;9.20;5.82;;;16.70;99.90;;;;;;5067411;28;20076;-83
2022/06/17 06:41:37;;;;;;;9.75;5.47;;;16.70;99.90;;;;;;5055101;28;20041;-83
2022/06/17 06:44:04;;;;;;;9.77;5.93;;;16.90;99.90;;;;;;5058935;28;20097;-83
2022/06/17 06:46:35;;;;;;;13.80;6.95;;;16.90;99.90;;;;;;5066252;28;20056;-83
2022/06/17 06:49:01;;;;;;;7.00;5.53;;;17.00;99.90;;;;;;5092967;28;20047;-84
2022/06/17 06:51:27;;;;;;;8.93;5.80;;;17.10;99.90;;;;;;5092858;28;20048;-83
2022/06/17 06:53:52;;;;;;;7.80;5.65;;;17.20;99.90;;;;;;5063546;28;20492;-83
2022/06/17 06:56:18;;;;;;;10.70;6.32;;;17.20;99.90;;;;;;5075131;28;20128;-83
2022/06/17 06:58:44;;;;;;;9.52;5.88;;;17.30;99.90;;;;;;5063138;28;20040;-83
2022/06/17 07:01:10;;;;;;;6.80;5.18;;;17.30;99.90;;;;;;5074888;28;20048;-83
2022/06/17 07:03:36;;;;;;;7.50;5.70;;;17.40;99.90;;;;;;5074975;28;20049;-83
2022/06/17 07:06:04;;;;;;;8.77;5.53;;;17.40;99.90;;;;;;5071065;28;20442;-83
2022/06/17 07:08:34;;;;;;;10.23;5.25;;;17.50;99.90;;;;;;5074875;28;20040;-84
2022/06/17 07:11:01;;;;;;;10.88;6.22;;;17.50;99.90;;;;;;5076996;28;20036;-83
2022/06/17 07:13:29;;;;;;;6.68;4.55;;;17.60;99.90;;;;;;5073985;28;20045;-83
2022/06/17 07:15:55;;;;;;;8.00;5.05;;;17.60;99.90;;;;;;5068001;28;20045;-84
2022/06/17 07:18:31;;;;;;;8.18;5.97;;;17.70;99.90;;;;;;5055159;28;20107;-84
2022/06/17 07:20:59;;;;;;;7.53;5.55;;;17.80;99.90;;;;;;5073727;28;20044;-83
2022/06/17 07:23:33;;;;;;;12.25;5.53;;;17.90;99.90;;;;;;5072541;28;20127;-84
2022/06/17 07:26:05;;;;;;;6.35;5.15;;;18.00;99.90;;;;;;5068316;28;20037;-83
2022/06/17 07:28:31;;;;;;;8.80;4.20;;;18.20;99.90;;;;;;5056811;28;20044;-82
2022/06/17 07:30:58;;;;;;;6.82;5.28;;;18.40;99.90;;;;;;5071753;28;20048;-84
2022/06/17 07:33:26;;;;;;;7.32;5.10;;;18.50;99.90;;;;;;5070238;28;20079;-83
2022/06/17 07:35:55;;;;;;;11.38;5.57;;;18.70;99.90;;;;;;5069303;28;20074;-83
2022/06/17 07:41:17;;;;;;;9.38;5.35;;;18.90;99.90;;;;;;5087916;28;20082;-82
2022/06/17 07:43:43;;;;;;;9.73;5.38;;;18.90;99.90;;;;;;5073169;28;20074;-84
2022/06/17 07:46:10;;;;;;;9.05;5.72;;;19.00;99.90;;;;;;5089341;28;20052;-82
2022/06/17 07:48:38;;;;;;;10.68;5.80;;;19.00;99.90;;;;;;5072034;28;20032;-83
2022/06/17 07:51:05;;;;;;;12.63;5.72;;;19.10;99.90;;;;;;5073238;28;20094;-85
2022/06/17 07:53:35;;;;;;;9.00;5.35;;;19.10;99.90;;;;;;5060483;28;20460;-83
2022/06/17 07:56:02;;;;;;;11.45;6.18;;;19.20;99.90;;;;;;5053674;28;20045;-83
2022/06/17 07:58:28;;;;;;;9.77;5.50;;;19.20;99.90;;;;;;5052744;28;20056;-83
2022/06/17 08:00:55;;;;;;;8.57;5.25;;;19.30;99.90;;;;;;5054372;28;20040;-83
2022/06/17 08:03:21;;;;;;;9.50;5.68;;;19.40;99.90;;;;;;5053757;28;20397;-83
2022/06/17 08:05:55;;;;;;;9.45;5.00;;;19.40;99.90;;;;;;5053639;28;20037;-84
2022/06/17 08:08:23;;;;;;;8.90;4.93;;;19.50;99.90;;;;;;5053180;28;20041;-83
2022/06/17 08:10:52;;;;;;;10.38;5.38;;;19.60;99.90;;;;;;5051676;28;20040;-83
2022/06/17 08:13:18;;;;;;;9.50;4.90;;;19.60;99.90;;;;;;5064268;28;20059;-83
2022/06/17 08:15:44;;;;;;;7.75;4.80;;;19.70;99.90;;;;;;5072950;28;20048;-83
2022/06/17 08:18:11;;;;;;;11.05;5.55;;;19.80;99.90;;;;;;5072954;28;20400;-85
2022/06/17 08:20:37;;;;;;;8.20;5.47;;;19.80;99.90;;;;;;5073565;28;20121;-83
2022/06/17 08:23:05;;;;;;;12.57;5.40;;;19.90;99.90;;;;;;5069062;28;20473;-84
2022/06/17 08:25:34;;;;;;;10.20;5.38;;;20.00;99.90;;;;;;5072786;28;20500;-84
2022/06/17 08:28:04;;;;;;;7.10;5.43;;;20.10;99.90;;;;;;5071670;28;20074;-84
2022/06/17 08:30:33;;;;;;;10.43;4.72;;;20.30;99.90;;;;;;5072384;28;20110;-83
2022/06/17 08:32:59;;;;;;;8.93;5.75;;;20.40;99.90;;;;;;5068141;28;20091;-83
2022/06/17 08:35:45;;;;;;;13.20;5.20;;;20.50;99.90;;;;;;5062175;28;20109;-83
2022/06/17 08:38:24;;;;;;;10.27;4.85;;;20.60;99.90;;;;;;5061796;28;20048;-83
2022/06/17 08:40:53;;;;;;;9.07;4.82;;;20.60;99.90;;;;;;5073460;28;20443;-83
2022/06/17 08:43:37;;;;;;;10.75;4.35;;;20.60;99.90;;;;;;5071575;28;20041;-83
2022/06/17 08:46:06;;;;;;;12.20;5.18;;;20.60;99.90;;;;;;5073046;28;20055;-84
2022/06/17 08:49:10;;;;;;;7.68;4.07;;;20.70;99.90;;;;;;5057848;28;20504;-83
2022/06/17 08:52:01;;;;;;;7.40;4.60;;;20.70;99.90;;;;;;5052503;28;20045;-83
2022/06/17 08:54:50;;;;;;;7.63;4.28;;;20.70;99.90;;;;;;5052947;28;20340;-83
2022/06/17 08:57:38;;;;;;;9.90;4.13;;;20.70;99.90;;;;;;5052525;28;20548;-83
2022/06/17 09:00:15;;;;;;;7.43;4.40;;;20.80;99.90;;;;;;5073509;28;20090;-83
2022/06/17 09:03:16;;;;;;;5.85;3.97;;;20.80;99.90;;;;;;5071885;28;20048;-83
2022/06/17 09:06:04;;;;;;;6.97;3.65;;;20.90;99.90;;;;;;5061688;28;20052;-83
2022/06/17 09:08:58;;;;;;;7.43;4.50;;;21.00;99.90;;;;;;5051823;28;20485;-84
2022/06/17 09:11:44;;;;;;;10.75;4.07;;;21.10;99.90;;;;;;5053342;28;20045;-84
2022/06/17 09:14:29;;;;;;;7.03;3.63;;;21.20;99.90;;;;;;5052930;28;20078;-83
2022/06/17 09:17:16;;;;;;;11.52;4.72;;;21.20;99.90;;;;;;5053668;28;20120;-84
2022/06/17 09:19:46;;;;;;;9.85;3.92;;;21.30;99.90;;;;;;5054467;28;20052;-83
2022/06/17 09:22:18;;;;;;;6.70;3.90;;;21.40;99.90;;;;;;5051565;28;20037;-84
2022/06/17 09:24:44;;;;;;;11.43;3.60;;;21.40;99.90;;;;;;5083072;28;20048;-84
2022/06/17 09:27:28;;;;;;;5.65;3.60;;;21.40;99.90;;;;;;5070693;28;20080;-84
2022/06/17 09:30:06;;;;;;;12.00;3.97;;;21.50;99.90;;;;;;5055400;28;20452;-83
2022/06/17 09:32:45;;;;;;;6.63;3.90;;;21.40;99.90;;;;;;5071017;28;20048;-83
2022/06/17 09:35:25;;;;;;;7.47;3.40;;;21.50;99.90;;;;;;5074618;28;20094;-84
2022/06/17 09:38:18;;;;;;;8.85;4.22;;;21.60;99.90;;;;;;5074100;28;20404;-83
2022/06/17 09:40:56;;;;;;;8.65;3.70;;;21.70;99.90;;;;;;5040883;28;20092;-84
2022/06/17 09:43:39;;;;;;;8.93;3.83;;;21.80;99.90;;;;;;5070681;28;20040;-84
2022/06/17 09:46:09;;;;;;;9.93;4.18;;;21.90;99.90;;;;;;5067769;28;20052;-83
2022/06/17 09:48:44;;;;;;;9.80;4.60;;;22.10;99.90;;;;;;5074481;28;20086;-84
2022/06/17 09:51:33;;;;;;;13.55;4.57;;;22.10;99.90;;;;;;5075500;28;20052;-85
2022/06/17 09:54:19;;;;;;;8.05;3.90;;;22.20;99.90;;;;;;5075506;28;20484;-85
2022/06/17 09:57:04;;;;;;;5.28;3.70;;;22.20;99.90;;;;;;5076590;28;20127;-84
2022/06/17 09:59:36;;;;;;;9.13;4.05;;;22.30;99.90;;;;;;5076834;28;20469;-83
2022/06/17 10:02:45;;;;;;;6.70;4.00;;;22.30;99.90;;;;;;5076315;28;20389;-84
2022/06/17 10:05:31;;;;;;;6.13;4.03;;;22.40;99.90;;;;;;5041889;28;20063;-83
2022/06/17 10:07:56;;;;;;;9.48;4.72;;;22.50;99.90;;;;;;5070224;28;20044;-86
2022/06/17 10:11:00;;;;;;;9.02;4.78;;;22.50;99.90;;;;;;5077738;28;20063;-84
2022/06/17 10:13:41;;;;;;;12.98;4.95;;;22.60;99.90;;;;;;5085533;28;20437;-83
2022/06/17 10:19:45;;;;;;;8.60;5.32;;;22.60;99.90;;;;;;5054770;28;20087;-83
2022/06/17 10:22:43;;;;;;;15.70;5.07;;;22.70;99.90;;;;;;5070475;28;20071;-84
2022/06/17 10:25:09;;;;;;;11.75;4.93;;;22.70;99.90;;;;;;5054756;28;20049;-83
2022/06/17 10:27:47;;;;;;;8.77;4.40;;;22.90;99.90;;;;;;5089726;28;20051;-85
2022/06/17 10:30:20;;;;;;;5.93;4.00;;;22.90;99.90;;;;;;5063016;28;20484;-83
2022/06/17 10:32:49;;;;;;;8.50;4.10;;;23.00;99.90;;;;;;5094313;28;20040;-83
2022/06/17 10:35:34;;;;;;;13.45;5.22;;;23.10;99.90;;;;;;5060417;28;20040;-83
2022/06/17 10:38:05;;;;;;;;;;;23.20;99.90;;;;;;5074270;28;20044;-83
2022/06/17 10:40:33;;;;;;;6.50;4.22;;;23.20;99.90;;;;;;5075855;28;19921;-84
2022/06/17 10:43:05;;;;;;;19.80;4.72;;;23.30;99.90;;;;;;5074256;28;20382;-84
2022/06/17 10:45:32;;;;;;;9.95;3.88;;;23.40;99.90;;;;;;5073484;28;20464;-85
2022/06/17 10:48:10;;;;;;;7.32;4.07;;;23.50;99.90;;;;;;5060692;28;20045;-84
2022/06/17 10:50:36;;;;;;;10.43;3.92;;;23.50;99.90;;;;;;5058773;28;20116;-82
2022/06/17 10:53:39;;;;;;;14.85;4.10;;;23.50;99.90;;;;;;5077395;28;20136;-84
2022/06/17 10:56:10;;;;;;;6.07;3.47;;;23.60;99.90;;;;;;5067424;28;20060;-84
2022/06/17 10:58:36;;;;;;;6.88;3.47;;;23.60;99.90;;;;;;5052855;28;20122;-82
2022/06/17 11:01:06;;;;;;;9.27;3.20;;;23.70;99.90;;;;;;5060675;28;20486;-83
2022/06/17 11:03:36;;;;;;;5.18;3.05;;;23.80;99.90;;;;;;5083750;28;20422;-82
2022/06/17 11:06:04;;;;;;;5.65;3.13;;;23.90;99.90;;;;;;5087840;28;20058;-82
2022/06/17 11:09:00;;;;;;;4.97;3.25;;;23.90;99.90;;;;;;5087871;28;20131;-83
2022/06/17 11:14:40;;;;;;;7.65;2.85;;;24.00;99.90;;;;;;5074785;28;20507;-85
2022/06/17 11:17:34;;;;;;;10.05;3.30;;;24.00;99.90;;;;;;5073873;28;20053;-83
2022/06/17 11:20:25;;;;;;;8.43;2.80;;;24.00;99.90;;;;;;5071392;28;20052;-83
2022/06/17 11:22:54;;;;;;;6.75;2.85;;;24.00;99.90;;;;;;5085773;28;20091;-84
2022/06/17 11:25:20;;;;;;;8.50;3.03;;;24.00;99.90;;;;;;5095078;28;20046;-84
2022/06/17 11:28:11;;;;;;;8.75;2.53;;;24.10;99.90;;;;;;5094489;28;20391;-83
2022/06/17 11:30:58;;;;;;;5.05;2.13;;;24.10;99.90;;;;;;5093953;28;20055;-82
2022/06/17 11:33:36;;;;;;;7.38;2.45;;;24.10;99.90;;;;;;5092661;28;20044;-82
2022/06/17 11:36:16;;;;;;;4.20;2.55;;;24.20;99.90;;;;;;5093551;28;20101;-82
2022/06/17 11:38:43;;;;;;;4.80;2.33;;;24.20;99.90;;;;;;5092674;28;20055;-84
2022/06/17 11:41:09;;;;;;;7.80;2.47;;;24.30;99.90;;;;;;5092430;28;20040;-80
2022/06/17 11:43:42;;;;;;;4.38;1.92;;;24.30;99.90;;;;;;5094790;28;20050;-83
2022/06/17 11:46:19;;;;;;;9.23;2.65;;;24.50;99.90;;;;;;5094635;28;20052;-83
2022/06/17 11:48:49;;;;;;;5.68;2.40;;;24.50;99.90;;;;;;5092726;28;20044;-83
2022/06/17 11:51:28;;;;;;;5.90;2.25;;;24.60;99.90;;;;;;5057422;28;20072;-83
2022/06/17 11:54:17;;;;;;;4.28;2.28;;;24.60;99.90;;;;;;5053198;28;20051;-83
2022/06/17 11:56:46;;;;;;;4.95;1.92;;;24.60;99.90;;;;;;5054825;28;20059;-86
2022/06/17 11:59:32;;;;;;;7.97;2.72;;;24.60;99.90;;;;;;5066439;28;20453;-84
2022/06/17 12:01:57;;;;;;;4.30;2.72;;;24.60;99.90;;;;;;5050472;28;20041;-84
2022/06/17 12:04:54;;;;;;;11.23;2.67;;;24.60;99.90;;;;;;5054467;28;20056;-82
2022/06/17 12:07:38;;;;;;;5.25;2.38;;;24.60;99.90;;;;;;5070213;28;20045;-84
2022/06/17 12:10:12;;;;;;;3.37;2.17;;;24.70;99.90;;;;;;5052485;28;20481;-85
2022/06/17 12:12:39;;;;;;;6.03;2.60;;;24.70;99.90;;;;;;5053237;28;20492;-84
2022/06/17 12:15:09;;;;;;;5.20;2.35;;;24.80;99.90;;;;;;5054341;28;20084;-85
2022/06/17 12:17:38;;;;;;;5.28;1.90;;;24.90;99.90;;;;;;5074019;28;20048;-84
2022/06/17 12:20:21;;;;;;;6.43;2.17;;;25.00;98.80;;;;;;5072028;28;20050;-84
2022/06/17 12:23:08;;;;;;;5.03;2.17;;;25.00;97.70;;;;;;5051634;28;20496;-84
2022/06/17 12:25:46;;;;;;;6.68;2.33;;;25.10;97.60;;;;;;5052882;28;20137;-83
2022/06/17 12:28:39;;;;;;;9.95;2.22;;;25.30;96.70;;;;;;5053754;28;20116;-84
2022/06/17 12:31:25;;;;;;;12.10;2.45;;;25.40;97.60;;;;;;5056312;28;20055;-83
2022/06/17 12:34:08;;;;;;;7.63;2.17;;;25.50;96.30;;;;;;5072272;28;20047;-84
2022/06/17 12:36:55;;;;;;;6.43;1.90;;;25.60;95.60;;;;;;5071235;28;20048;-83
2022/06/17 12:39:49;;;;;;;8.00;2.00;;;25.70;95.60;;;;;;5074846;28;20127;-85
2022/06/17 12:42:35;;;;;;;5.78;1.90;;;25.90;96.20;;;;;;5054766;28;20049;-84
2022/06/17 12:45:19;;;;;;;5.32;1.80;;;26.00;95.10;;;;;;5059776;28;20052;-85
2022/06/17 12:47:56;;;;;;;5.78;1.90;;;26.00;94.40;;;;;;5063989;28;20114;-86
2022/06/17 12:53:33;;;;;;;3.67;1.70;;;26.00;90.80;;;;;;5053093;28;20056;-85
2022/06/17 12:56:13;;;;;;;8.07;2.08;;;26.00;92.40;;;;;;5059350;28;20081;-88
2022/06/17 12:58:59;;;;;;;5.40;2.70;;;26.00;92.10;;;;;;5071437;28;20424;-84
2022/06/17 13:01:49;;;;;;;3.80;1.92;;;26.00;92.70;;;;;;5071019;28;20504;-86
2022/06/17 13:04:49;;;;;;;10.73;2.13;;;26.00;92.60;;;;;;5061183;28;20052;-86
2022/06/17 13:08:00;;;;;;;11.27;2.25;;;25.90;93.00;;;;;;5053290;28;20129;-85
2022/06/17 13:10:40;;;;;;;5.50;1.90;;;25.90;92.10;;;;;;5046887;28;20204;-84
2022/06/17 13:13:15;;;;;;;3.78;1.90;;;25.90;92.40;;;;;;5050388;28;20057;-85
2022/06/17 13:15:54;;;;;;;6.03;1.75;;;25.90;93.00;;;;;;5056268;28;20045;-87
2022/06/17 13:18:38;;;;;;;6.07;2.40;;;25.90;93.40;;;;;;5071100;28;20571;-85
2022/06/17 13:21:28;;;;;;;6.70;2.25;;;25.90;93.60;;;;;;5074144;28;20162;-84
2022/06/17 13:24:15;;;;;;;6.10;2.20;;;26.00;92.70;;;;;;5065184;28;20054;-83
2022/06/17 13:27:03;;;;;;;7.85;1.83;;;26.00;93.00;;;;;;5054671;28;20119;-88
2022/06/17 13:29:52;;;;;;;7.53;2.05;;;26.20;92.70;;;;;;5070469;28;20111;-86
2022/06/17 13:32:26;;;;;;;4.47;1.77;;;26.30;91.70;;;;;;5079839;28;20202;-86